< < Back
Terminal Aerodrome Forecast


Current Version              Previous Versions:   1  2  3  4  5  6  7  8  9  

Terminal Aerodrome Forecast

404
FTUS42 KFFC 310500 RRA
TAFATL
TAF
KATL 310543Z 3106/0112 32004KT P6SM SKC
     FM311400 32008KT P6SM SCT120
     FM311900 31012G20KT P6SM BKN080
     FM010100 33018G28KT P6SM BKN025 PROB30 0101/0106 6SM -SHRA
     FM011000 33020G30KT P6SM BKN035=



Latest METAR

191
SAUS70 KWBC 311256
MTRATL
METAR KATL 311252Z 02006KT 10SM FEW080 SCT130 SCT200 BKN250 09/04 A2993
RMK AO2 SLP135 VIRGA DSNT N & E-SE & NW ACC DSNT N & E & SE &
NW T00940044


USA.gov is the U.S. government's official web portal to all federal, state and local government web resources and services.